Time;durP1;ratioP1;P1;durP2;ratioP2;P2;SDS_P1;SDS_P2;PMS_P1;PMS_P2;Temp;Humidity;BMP_temperature;BMP_pressure;BME280_temperature;BME280_humidity;BME280_pressure;Samples;Min_cycle;Max_cycle;Signal;HPM_P1;HPM_P2
2022/11/27 00:01:40;;;;;;;271.13;115.87;;;;;;;;;;4995399;28;20328;-54
2022/11/27 00:04:07;;;;;;;531.40;202.90;;;;;;;;;;4993578;28;20228;-54
2022/11/27 00:06:34;;;;;;;361.70;147.90;;;;;;;;;;4995838;28;20609;-54
2022/11/27 00:09:01;;;;;;;287.70;125.83;;;;;;;;;;4994274;28;20593;-54
2022/11/27 00:11:28;;;;;;;332.17;134.43;;;;;;;;;;4993560;28;20621;-54
2022/11/27 00:13:54;;;;;;;450.83;176.73;;;;;;;;;;4994124;28;20227;-54
2022/11/27 00:16:21;;;;;;;492.57;192.80;;;;;;;;;;4995876;28;20213;-54
2022/11/27 00:18:48;;;;;;;299.43;128.93;;;;;;;;;;4988130;28;20239;-54
2022/11/27 00:21:16;;;;;;;471.23;178.27;;;;;;;;;;5000636;28;20189;-54
2022/11/27 00:23:45;;;;;;;282.83;115.93;;;;;;;;;;4989667;28;20253;-54
2022/11/27 00:26:11;;;;;;;379.80;150.37;;;;;;;;;;4999865;28;20216;-54
2022/11/27 00:28:37;;;;;;;349.83;139.57;;;;;;;;;;5011158;28;20719;-54
2022/11/27 00:31:05;;;;;;;332.23;137.93;;;;;;;;;;4988048;28;20307;-54
2022/11/27 00:33:31;;;;;;;499.23;182.67;;;;;;;;;;4992896;28;20265;-54
2022/11/27 00:36:00;;;;;;;319.23;135.13;;;;;;;;;;5006987;28;20509;-54
2022/11/27 00:38:27;;;;;;;470.70;181.13;;;;;;;;;;4990835;28;20227;-53
2022/11/27 00:40:53;;;;;;;308.00;128.90;;;;;;;;;;4993861;28;20216;-57
2022/11/27 00:43:19;;;;;;;584.67;218.57;;;;;;;;;;4987940;28;20217;-54
2022/11/27 00:45:48;;;;;;;427.70;152.20;;;;;;;;;;5000925;28;20238;-54
2022/11/27 00:48:14;;;;;;;514.13;183.93;;;;;;;;;;5008776;28;20187;-54
2022/11/27 00:50:40;;;;;;;259.53;114.10;;;;;;;;;;5020934;28;20238;-54
2022/11/27 00:53:06;;;;;;;274.27;115.97;;;;;;;;;;5013187;28;20208;-55
2022/11/27 00:55:32;;;;;;;520.33;189.43;;;;;;;;;;5012207;28;20223;-54
2022/11/27 00:57:58;;;;;;;371.57;153.73;;;;;;;;;;5006755;28;20533;-54
2022/11/27 01:00:24;;;;;;;535.10;201.03;;;;;;;;;;4993344;28;20525;-54
2022/11/27 01:02:50;;;;;;;383.87;154.33;;;;;;;;;;5011792;28;20235;-54
2022/11/27 01:05:16;;;;;;;265.30;115.83;;;;;;;;;;4997845;28;20311;-55
2022/11/27 01:07:42;;;;;;;258.10;114.37;;;;;;;;;;4996117;28;20666;-54
2022/11/27 01:10:08;;;;;;;514.60;195.30;;;;;;;;;;5018766;28;20979;-54
2022/11/27 01:12:34;;;;;;;470.33;189.73;;;;;;;;;;5007561;28;20212;-54
2022/11/27 01:15:00;;;;;;;337.73;143.30;;;;;;;;;;5015534;28;20248;-54
2022/11/27 01:17:29;;;;;;;419.03;155.27;;;;;;;;;;5012666;28;20258;-54
2022/11/27 01:19:55;;;;;;;266.40;115.53;;;;;;;;;;5019982;28;20219;-54
2022/11/27 01:22:21;;;;;;;374.03;143.07;;;;;;;;;;5023175;28;20224;-54
2022/11/27 01:24:47;;;;;;;248.50;108.97;;;;;;;;;;5028074;28;20292;-54
2022/11/27 01:27:13;;;;;;;272.17;116.00;;;;;;;;;;5025784;28;20194;-54
2022/11/27 01:29:39;;;;;;;473.83;179.87;;;;;;;;;;5015505;28;20304;-55
2022/11/27 01:32:05;;;;;;;304.30;122.23;;;;;;;;;;5015157;28;20207;-54
2022/11/27 01:34:31;;;;;;;523.13;191.20;;;;;;;;;;4997412;28;20574;-54
2022/11/27 01:36:57;;;;;;;300.37;128.97;;;;;;;;;;5001160;28;20291;-53
2022/11/27 01:39:24;;;;;;;477.60;177.83;;;;;;;;;;5008206;28;20716;-54
2022/11/27 01:41:50;;;;;;;533.07;198.40;;;;;;;;;;4992556;28;20280;-54
2022/11/27 01:44:26;;;;;;;458.97;168.67;;;;;;;;;;4996819;28;21603;-54
2022/11/27 01:46:55;;;;;;;232.93;102.47;;;;;;;;;;5001018;28;20209;-54
2022/11/27 01:49:25;;;;;;;365.97;139.90;;;;;;;;;;5011763;28;20232;-54
2022/11/27 01:51:54;;;;;;;379.57;142.90;;;;;;;;;;4998305;28;20234;-54
2022/11/27 01:54:21;;;;;;;359.30;152.10;;;;;;;;;;4995865;28;20671;-53
2022/11/27 01:56:49;;;;;;;370.87;143.27;;;;;;;;;;4991169;28;20193;-54
2022/11/27 01:59:16;;;;;;;248.63;107.03;;;;;;;;;;4996403;28;20253;-53
2022/11/27 02:01:42;;;;;;;284.43;126.73;;;;;;;;;;5006167;28;20364;-54
2022/11/27 02:04:08;;;;;;;268.93;115.77;;;;;;;;;;4995637;28;20240;-54
2022/11/27 02:06:35;;;;;;;446.60;174.47;;;;;;;;;;5003561;28;20185;-54
2022/11/27 02:09:01;;;;;;;365.20;150.07;;;;;;;;;;5001554;28;20687;-54
2022/11/27 02:11:41;;;;;;;426.53;166.23;;;;;;;;;;5001285;28;20228;-54
2022/11/27 02:14:09;;;;;;;365.53;147.57;;;;;;;;;;4998625;28;20578;-54
2022/11/27 02:16:43;;;;;;;437.60;163.70;;;;;;;;;;4995365;28;22586;-54
2022/11/27 02:19:16;;;;;;;463.07;179.13;;;;;;;;;;4994446;28;20239;-54
2022/11/27 02:21:47;;;;;;;491.43;193.50;;;;;;;;;;5000182;28;21227;-54
2022/11/27 02:24:22;;;;;;;238.67;104.37;;;;;;;;;;5015090;28;20195;-54
2022/11/27 02:26:48;;;;;;;386.30;152.03;;;;;;;;;;5011773;28;20219;-54
2022/11/27 02:29:19;;;;;;;409.87;157.50;;;;;;;;;;5022103;28;20219;-54
2022/11/27 02:32:03;;;;;;;411.07;159.13;;;;;;;;;;5016022;28;20239;-54
2022/11/27 02:34:56;;;;;;;395.87;151.53;;;;;;;;;;5010519;28;20223;-54
2022/11/27 02:37:21;;;;;;;395.53;154.03;;;;;;;;;;5007243;28;20227;-53
2022/11/27 02:39:53;;;;;;;360.03;150.73;;;;;;;;;;4998594;28;20552;-54
2022/11/27 02:42:20;;;;;;;261.03;113.90;;;;;;;;;;5032929;28;20227;-54
2022/11/27 02:44:50;;;;;;;378.60;148.30;;;;;;;;;;5015239;28;20653;-54
2022/11/27 02:47:17;;;;;;;387.13;151.17;;;;;;;;;;5013124;28;20211;-54
2022/11/27 02:49:43;;;;;;;476.50;181.17;;;;;;;;;;4991687;28;23538;-54
2022/11/27 02:52:14;;;;;;;386.83;149.63;;;;;;;;;;4998401;28;20295;-54
2022/11/27 02:54:41;;;;;;;425.00;153.80;;;;;;;;;;4994786;28;20212;-54
2022/11/27 02:57:07;;;;;;;412.70;152.67;;;;;;;;;;5003116;28;21229;-54
2022/11/27 02:59:34;;;;;;;329.80;132.40;;;;;;;;;;5000371;28;20223;-54
2022/11/27 03:02:05;;;;;;;432.00;168.57;;;;;;;;;;4998614;28;20220;-53
2022/11/27 03:04:33;;;;;;;463.07;173.93;;;;;;;;;;4999382;28;20277;-54
2022/11/27 03:07:03;;;;;;;470.07;174.20;;;;;;;;;;5013765;28;20286;-54
2022/11/27 03:09:33;;;;;;;433.37;165.17;;;;;;;;;;4995101;28;20188;-54
2022/11/27 03:12:00;;;;;;;493.30;185.63;;;;;;;;;;4993093;28;20282;-54
2022/11/27 03:14:26;;;;;;;393.33;147.37;;;;;;;;;;4999095;28;20212;-54
2022/11/27 03:16:57;;;;;;;495.70;194.47;;;;;;;;;;4993888;28;20664;-53
2022/11/27 03:19:39;;;;;;;218.23;98.23;;;;;;;;;;5004165;28;20789;-54
2022/11/27 03:22:05;;;;;;;345.03;126.57;;;;;;;;;;5008682;28;20824;-54
2022/11/27 03:24:32;;;;;;;357.30;133.37;;;;;;;;;;5010416;28;20212;-54
2022/11/27 03:26:59;;;;;;;409.10;150.80;;;;;;;;;;5006915;28;20265;-54
2022/11/27 03:29:25;;;;;;;450.27;175.83;;;;;;;;;;5022980;28;20634;-53
2022/11/27 03:31:51;;;;;;;436.73;168.10;;;;;;;;;;5017882;28;20227;-54
2022/11/27 03:34:17;;;;;;;408.53;158.80;;;;;;;;;;5014103;28;20220;-54
2022/11/27 03:36:44;;;;;;;445.93;175.77;;;;;;;;;;5022580;28;20220;-54
2022/11/27 03:39:16;;;;;;;389.30;164.70;;;;;;;;;;5016741;28;20308;-54
2022/11/27 03:41:52;;;;;;;404.83;159.10;;;;;;;;;;5021236;28;20607;-54
2022/11/27 03:44:18;;;;;;;507.37;195.50;;;;;;;;;;5018540;28;20246;-53
2022/11/27 03:46:50;;;;;;;292.60;125.77;;;;;;;;;;5016310;28;20227;-54
2022/11/27 03:49:23;;;;;;;485.23;185.97;;;;;;;;;;5003580;28;20483;-54
2022/11/27 03:51:49;;;;;;;339.73;135.57;;;;;;;;;;5018904;28;20720;-54
2022/11/27 03:54:22;;;;;;;370.63;148.20;;;;;;;;;;5033307;28;20246;-54
2022/11/27 03:56:54;;;;;;;247.07;111.53;;;;;;;;;;5014786;28;20208;-54
2022/11/27 03:59:25;;;;;;;349.83;145.40;;;;;;;;;;5017236;28;20223;-53
2022/11/27 04:01:54;;;;;;;414.77;161.70;;;;;;;;;;5006139;28;20363;-54
2022/11/27 04:04:20;;;;;;;459.10;174.07;;;;;;;;;;4996628;28;20274;-54
2022/11/27 04:06:46;;;;;;;398.50;165.83;;;;;;;;;;5006674;28;20755;-54
2022/11/27 04:09:12;;;;;;;309.20;125.37;;;;;;;;;;4994787;28;20181;-54
2022/11/27 04:11:38;;;;;;;488.70;201.03;;;;;;;;;;4995617;28;20212;-53
2022/11/27 04:14:04;;;;;;;407.97;162.10;;;;;;;;;;4999746;28;20709;-54
2022/11/27 04:16:33;;;;;;;349.63;141.47;;;;;;;;;;5013817;28;20212;-54
2022/11/27 04:18:59;;;;;;;545.70;220.87;;;;;;;;;;4982222;28;20905;-53
2022/11/27 04:21:25;;;;;;;476.67;192.83;;;;;;;;;;4995182;28;20201;-55
2022/11/27 04:23:51;;;;;;;435.83;182.07;;;;;;;;;;4990709;28;20220;-53
2022/11/27 04:26:17;;;;;;;394.67;160.73;;;;;;;;;;5000055;28;21050;-54
2022/11/27 04:28:43;;;;;;;463.87;177.27;;;;;;;;;;4999366;28;20696;-54
2022/11/27 04:31:09;;;;;;;343.77;142.27;;;;;;;;;;4994923;28;20224;-54
2022/11/27 04:33:35;;;;;;;371.27;156.90;;;;;;;;;;4984946;28;20302;-54
2022/11/27 04:36:01;;;;;;;391.27;155.33;;;;;;;;;;4990139;28;20490;-54
2022/11/27 04:38:27;;;;;;;380.33;159.93;;;;;;;;;;4997642;28;20920;-54
2022/11/27 04:40:53;;;;;;;501.27;194.10;;;;;;;;;;4992333;28;20272;-54
2022/11/27 04:43:19;;;;;;;394.17;165.93;;;;;;;;;;4991053;28;20220;-54
2022/11/27 04:45:45;;;;;;;457.77;167.70;;;;;;;;;;5011235;28;20700;-54
2022/11/27 04:48:11;;;;;;;326.13;137.40;;;;;;;;;;5007502;28;20580;-54
2022/11/27 04:50:38;;;;;;;416.93;168.47;;;;;;;;;;4983019;28;20220;-54
2022/11/27 04:53:04;;;;;;;300.07;131.40;;;;;;;;;;4994785;28;20251;-54
2022/11/27 04:55:30;;;;;;;508.83;199.50;;;;;;;;;;4995612;28;20690;-54
2022/11/27 04:57:55;;;;;;;404.60;151.07;;;;;;;;;;5002800;28;20752;-54
2022/11/27 05:00:22;;;;;;;497.17;196.03;;;;;;;;;;5001006;28;20829;-55
2022/11/27 05:02:48;;;;;;;508.80;201.87;;;;;;;;;;4990878;28;20312;-54
2022/11/27 05:05:14;;;;;;;323.10;134.37;;;;;;;;;;4982926;28;20213;-54
2022/11/27 05:07:40;;;;;;;414.03;165.27;;;;;;;;;;4987797;28;20720;-55
2022/11/27 05:10:06;;;;;;;329.27;133.57;;;;;;;;;;4990292;28;20284;-54
2022/11/27 05:12:35;;;;;;;347.90;146.00;;;;;;;;;;4992142;28;20228;-54
2022/11/27 05:15:01;;;;;;;527.03;198.40;;;;;;;;;;4988911;28;20185;-54
2022/11/27 05:17:27;;;;;;;400.90;163.40;;;;;;;;;;5003834;28;20220;-54
2022/11/27 05:19:53;;;;;;;421.77;170.17;;;;;;;;;;4991837;28;20223;-54
2022/11/27 05:22:20;;;;;;;337.40;134.07;;;;;;;;;;5017398;28;20569;-55
2022/11/27 05:24:46;;;;;;;503.07;192.60;;;;;;;;;;5001392;28;20302;-54
2022/11/27 05:27:12;;;;;;;492.17;172.90;;;;;;;;;;5010237;28;20664;-54
2022/11/27 05:29:39;;;;;;;392.03;147.77;;;;;;;;;;5009587;28;20307;-53
2022/11/27 05:32:05;;;;;;;424.77;168.33;;;;;;;;;;4996841;28;20231;-54
2022/11/27 05:34:31;;;;;;;437.57;158.60;;;;;;;;;;4985868;28;20900;-53
2022/11/27 05:36:57;;;;;;;418.33;155.10;;;;;;;;;;4986620;28;21280;-54
2022/11/27 05:39:23;;;;;;;522.63;189.97;;;;;;;;;;4991190;28;20303;-54
2022/11/27 05:41:49;;;;;;;555.10;190.43;;;;;;;;;;4990608;28;20626;-54
2022/11/27 05:44:15;;;;;;;306.73;124.47;;;;;;;;;;4993571;28;20204;-54
2022/11/27 05:46:44;;;;;;;363.67;136.10;;;;;;;;;;4986694;28;21125;-54
2022/11/27 05:49:12;;;;;;;311.90;126.07;;;;;;;;;;4987177;28;20217;-54
2022/11/27 05:51:38;;;;;;;509.77;160.17;;;;;;;;;;4993926;28;20343;-54
2022/11/27 05:54:04;;;;;;;430.87;143.40;;;;;;;;;;4994532;28;20595;-54
2022/11/27 05:56:30;;;;;;;417.63;144.37;;;;;;;;;;4984562;28;20212;-54
2022/11/27 05:58:56;;;;;;;529.20;192.87;;;;;;;;;;4979836;28;20239;-54
2022/11/27 06:01:21;;;;;;;308.53;122.53;;;;;;;;;;4987216;28;20733;-54
2022/11/27 06:03:47;;;;;;;313.47;111.63;;;;;;;;;;4992021;28;20301;-53
2022/11/27 06:06:15;;;;;;;356.77;143.13;;;;;;;;;;5014112;28;20180;-54
2022/11/27 06:08:41;;;;;;;399.77;141.43;;;;;;;;;;5008236;28;20274;-53
2022/11/27 06:11:07;;;;;;;389.80;137.47;;;;;;;;;;5006683;28;20568;-54
2022/11/27 06:13:33;;;;;;;404.57;146.13;;;;;;;;;;4989147;28;20849;-54
2022/11/27 06:16:03;;;;;;;474.83;166.77;;;;;;;;;;4989747;28;20227;-53
2022/11/27 06:18:29;;;;;;;463.73;172.10;;;;;;;;;;4988742;28;20231;-53
2022/11/27 06:20:55;;;;;;;507.53;153.67;;;;;;;;;;4997457;28;20672;-53
2022/11/27 06:23:21;;;;;;;560.93;177.50;;;;;;;;;;4978448;28;20213;-53
2022/11/27 06:25:47;;;;;;;396.97;139.20;;;;;;;;;;4992893;28;20212;-54
2022/11/27 06:28:13;;;;;;;246.23;104.70;;;;;;;;;;4994259;28;20372;-54
2022/11/27 06:30:39;;;;;;;460.63;163.10;;;;;;;;;;5002363;28;21022;-54
2022/11/27 06:33:05;;;;;;;362.27;138.97;;;;;;;;;;4993539;28;20735;-55
2022/11/27 06:35:30;;;;;;;431.77;151.43;;;;;;;;;;4984879;28;20216;-55
2022/11/27 06:37:56;;;;;;;314.00;121.87;;;;;;;;;;4992515;28;20314;-54
2022/11/27 06:40:22;;;;;;;424.93;164.07;;;;;;;;;;4986911;28;20237;-53
2022/11/27 06:42:48;;;;;;;312.47;126.57;;;;;;;;;;4972843;28;20622;-54
2022/11/27 06:45:14;;;;;;;455.50;169.53;;;;;;;;;;5000708;28;20553;-54
2022/11/27 06:47:40;;;;;;;576.83;201.87;;;;;;;;;;4975707;28;20670;-54
2022/11/27 06:50:06;;;;;;;449.07;164.47;;;;;;;;;;4990308;28;21372;-53
2022/11/27 06:52:32;;;;;;;420.23;161.33;;;;;;;;;;4996726;28;20697;-54
2022/11/27 06:54:58;;;;;;;443.87;166.40;;;;;;;;;;4979861;28;20728;-54
2022/11/27 06:57:24;;;;;;;410.90;161.43;;;;;;;;;;4982870;28;20185;-53
2022/11/27 06:59:50;;;;;;;432.73;170.40;;;;;;;;;;4970193;28;20845;-54
2022/11/27 07:02:16;;;;;;;378.20;147.43;;;;;;;;;;4978985;28;20471;-54
2022/11/27 07:04:43;;;;;;;458.33;167.20;;;;;;;;;;4983879;28;20217;-54
2022/11/27 07:07:09;;;;;;;323.13;128.43;;;;;;;;;;4991111;28;20220;-54
2022/11/27 07:09:35;;;;;;;374.50;140.70;;;;;;;;;;4996784;28;20545;-54
2022/11/27 07:12:03;;;;;;;392.50;155.10;;;;;;;;;;4983784;28;20488;-54
2022/11/27 07:14:29;;;;;;;474.73;167.83;;;;;;;;;;4997980;28;20220;-54
2022/11/27 07:16:55;;;;;;;490.10;170.03;;;;;;;;;;4975583;28;20216;-54
2022/11/27 07:19:21;;;;;;;515.00;162.40;;;;;;;;;;4984290;28;20227;-54
2022/11/27 07:21:47;;;;;;;363.20;132.73;;;;;;;;;;4986084;28;20280;-54
2022/11/27 07:24:13;;;;;;;287.80;119.17;;;;;;;;;;4984153;28;20208;-54
2022/11/27 07:26:39;;;;;;;517.53;188.53;;;;;;;;;;4969579;28;20788;-54
2022/11/27 07:29:06;;;;;;;374.20;140.27;;;;;;;;;;4987760;28;20618;-54
2022/11/27 07:31:32;;;;;;;457.30;160.57;;;;;;;;;;4989131;28;20284;-54
2022/11/27 07:33:58;;;;;;;495.60;177.80;;;;;;;;;;4976643;28;20784;-53
2022/11/27 07:36:25;;;;;;;450.73;160.33;;;;;;;;;;4983565;28;20199;-53
2022/11/27 07:38:51;;;;;;;329.27;133.73;;;;;;;;;;4976550;28;20720;-55
2022/11/27 07:41:18;;;;;;;401.93;161.40;;;;;;;;;;4979423;28;20351;-54
2022/11/27 07:43:44;;;;;;;541.80;201.87;;;;;;;;;;4986484;28;20854;-54
2022/11/27 07:46:18;;;;;;;540.27;197.10;;;;;;;;;;4988538;28;20919;-54
2022/11/27 07:48:44;;;;;;;414.73;151.70;;;;;;;;;;4990695;28;20205;-54
2022/11/27 07:51:12;;;;;;;419.60;152.87;;;;;;;;;;4987587;28;20188;-54
2022/11/27 07:53:39;;;;;;;433.47;172.63;;;;;;;;;;4989488;28;20635;-54
2022/11/27 07:56:05;;;;;;;370.47;136.47;;;;;;;;;;5002181;28;20330;-54
2022/11/27 07:58:31;;;;;;;270.40;114.50;;;;;;;;;;5000662;28;20374;-54
2022/11/27 08:00:57;;;;;;;437.03;164.00;;;;;;;;;;4995305;28;20297;-53
2022/11/27 08:03:24;;;;;;;522.83;176.17;;;;;;;;;;4995842;28;21154;-52
2022/11/27 08:05:50;;;;;;;384.07;142.47;;;;;;;;;;4979708;28;20243;-54
2022/11/27 08:08:16;;;;;;;500.57;174.67;;;;;;;;;;4989287;28;20295;-53
2022/11/27 08:10:42;;;;;;;495.83;176.97;;;;;;;;;;4988473;28;22625;-53
2022/11/27 08:13:08;;;;;;;539.47;200.37;;;;;;;;;;4984478;28;20254;-55
2022/11/27 08:15:34;;;;;;;667.20;243.30;;;;;;;;;;4970141;28;20973;-53
2022/11/27 08:18:00;;;;;;;671.93;255.67;;;;;;;;;;4980200;28;20205;-53
2022/11/27 08:20:26;;;;;;;446.50;149.50;;;;;;;;;;4994478;28;20204;-53
2022/11/27 08:22:52;;;;;;;519.57;182.50;;;;;;;;;;4993084;28;20304;-54
2022/11/27 08:25:18;;;;;;;529.50;195.37;;;;;;;;;;5002553;28;20207;-54
2022/11/27 08:27:46;;;;;;;518.07;186.17;;;;;;;;;;4999109;28;20985;-54
2022/11/27 08:30:13;;;;;;;443.20;161.60;;;;;;;;;;4989615;28;20206;-53
2022/11/27 08:32:39;;;;;;;495.63;179.67;;;;;;;;;;5005700;28;20227;-54
2022/11/27 08:35:06;;;;;;;377.27;147.83;;;;;;;;;;5009443;28;20307;-54
2022/11/27 08:37:32;;;;;;;581.77;210.97;;;;;;;;;;4995192;28;20253;-54
2022/11/27 08:39:58;;;;;;;432.63;168.27;;;;;;;;;;4996359;28;20220;-54
2022/11/27 08:42:24;;;;;;;590.10;196.57;;;;;;;;;;4985490;28;20243;-53
2022/11/27 08:44:50;;;;;;;479.50;167.43;;;;;;;;;;4975908;28;20260;-52
2022/11/27 08:47:16;;;;;;;517.43;169.63;;;;;;;;;;4929379;28;20220;-53
2022/11/27 08:49:42;;;;;;;663.40;224.20;;;;;;;;;;4986849;28;20581;-53
2022/11/27 08:52:09;;;;;;;508.83;180.10;;;;;;;;;;4984589;28;20217;-53
2022/11/27 08:54:35;;;;;;;387.20;155.67;;;;;;;;;;4978373;28;20181;-53
2022/11/27 08:57:01;;;;;;;351.87;130.13;;;;;;;;;;4995945;28;20188;-52
2022/11/27 08:59:27;;;;;;;505.00;172.07;;;;;;;;;;5017431;28;20773;-52
2022/11/27 09:01:53;;;;;;;457.63;168.10;;;;;;;;;;5011810;28;20612;-54
2022/11/27 09:04:18;;;;;;;485.53;166.73;;;;;;;;;;5003997;28;20704;-54
2022/11/27 09:06:44;;;;;;;578.67;213.50;;;;;;;;;;4996839;28;20223;-54
2022/11/27 09:09:11;;;;;;;363.13;148.23;;;;;;;;;;4992180;28;20189;-54
2022/11/27 09:11:37;;;;;;;373.20;144.87;;;;;;;;;;4993912;28;20232;-55
2022/11/27 09:14:03;;;;;;;470.40;185.83;;;;;;;;;;4990718;28;20661;-55
2022/11/27 09:16:29;;;;;;;447.53;167.13;;;;;;;;;;4994929;28;20209;-54
2022/11/27 09:18:55;;;;;;;360.37;148.70;;;;;;;;;;5000671;28;20243;-54
2022/11/27 09:21:22;;;;;;;482.33;184.53;;;;;;;;;;4993457;28;20257;-55
2022/11/27 09:23:51;;;;;;;387.47;147.63;;;;;;;;;;5002791;28;20232;-54
2022/11/27 09:26:17;;;;;;;403.67;161.00;;;;;;;;;;4986917;28;20224;-55
2022/11/27 09:28:43;;;;;;;561.60;232.97;;;;;;;;;;4995827;28;20751;-55
2022/11/27 09:31:10;;;;;;;341.03;135.17;;;;;;;;;;5001686;28;20204;-54
2022/11/27 09:33:37;;;;;;;467.17;179.87;;;;;;;;;;4981573;28;20240;-54
2022/11/27 09:36:11;;;;;;;343.53;142.20;;;;;;;;;;4979047;28;20185;-54
2022/11/27 09:38:37;;;;;;;502.50;180.60;;;;;;;;;;4980660;28;20362;-54
2022/11/27 09:41:18;;;;;;;358.50;148.03;;;;;;;;;;4978420;28;20219;-54
2022/11/27 09:43:58;;;;;;;468.17;162.80;;;;;;;;;;4980386;28;20545;-55
2022/11/27 09:46:32;;;;;;;362.37;143.10;;;;;;;;;;4989182;28;20212;-55
2022/11/27 09:49:00;;;;;;;528.07;202.93;;;;;;;;;;4977721;28;20209;-54
2022/11/27 09:51:46;;;;;;;481.27;192.73;;;;;;;;;;4993834;28;20180;-54
2022/11/27 09:54:16;;;;;;;406.83;166.67;;;;;;;;;;4993946;28;20181;-55
2022/11/27 09:56:44;;;;;;;544.53;207.00;;;;;;;;;;4976449;28;20981;-55
2022/11/27 09:59:17;;;;;;;523.80;193.03;;;;;;;;;;4977366;28;20791;-54
2022/11/27 10:01:44;;;;;;;435.37;176.40;;;;;;;;;;4979082;28;20475;-54
2022/11/27 10:04:11;;;;;;;533.83;199.10;;;;;;;;;;4966106;28;20232;-55
2022/11/27 10:06:46;;;;;;;511.67;188.90;;;;;;;;;;4977330;28;20213;-55
2022/11/27 10:09:25;;;;;;;381.10;158.03;;;;;;;;;;4963334;28;20415;-54
2022/11/27 10:11:56;;;;;;;436.87;182.73;;;;;;;;;;4963525;28;20737;-54
2022/11/27 10:14:31;;;;;;;621.27;232.13;;;;;;;;;;4971345;28;20366;-54
2022/11/27 10:17:07;;;;;;;617.13;235.17;;;;;;;;;;4978827;28;20550;-55
2022/11/27 10:19:43;;;;;;;436.20;162.80;;;;;;;;;;4972548;28;20420;-54
2022/11/27 10:22:15;;;;;;;304.67;132.67;;;;;;;;;;4973149;28;20311;-55
2022/11/27 10:25:02;;;;;;;454.80;176.77;;;;;;;;;;4984139;28;20216;-54
2022/11/27 10:27:46;;;;;;;467.80;173.10;;;;;;;;;;4974597;28;20200;-54
2022/11/27 10:30:16;;;;;;;464.53;167.80;;;;;;;;;;4971959;28;20189;-54
2022/11/27 10:32:42;;;;;;;527.40;200.27;;;;;;;;;;4977750;28;20243;-55
2022/11/27 10:35:13;;;;;;;407.40;153.37;;;;;;;;;;5007090;28;20294;-55
2022/11/27 10:37:42;;;;;;;626.47;228.77;;;;;;;;;;4988600;28;20224;-54
2022/11/27 10:40:11;;;;;;;435.40;159.83;;;;;;;;;;4969449;28;20223;-55
2022/11/27 10:42:55;;;;;;;449.97;185.07;;;;;;;;;;4984908;28;20567;-54
2022/11/27 10:45:24;;;;;;;456.90;165.03;;;;;;;;;;4975625;28;20715;-54
2022/11/27 10:47:50;;;;;;;641.00;231.23;;;;;;;;;;5000400;28;20184;-55
2022/11/27 10:50:17;;;;;;;356.90;138.47;;;;;;;;;;4987436;28;20270;-55
2022/11/27 10:52:49;;;;;;;566.73;205.93;;;;;;;;;;4981585;28;20320;-55
2022/11/27 10:55:18;;;;;;;436.57;169.77;;;;;;;;;;5010413;28;20219;-55
2022/11/27 10:57:57;;;;;;;592.23;205.13;;;;;;;;;;4972831;28;20241;-54
2022/11/27 11:00:24;;;;;;;488.73;175.07;;;;;;;;;;4986125;28;20185;-55
2022/11/27 11:02:59;;;;;;;564.13;227.70;;;;;;;;;;5000277;28;20518;-55
2022/11/27 11:05:25;;;;;;;428.67;179.57;;;;;;;;;;4990400;28;20213;-54
2022/11/27 11:07:55;;;;;;;336.20;138.47;;;;;;;;;;4978876;28;20225;-55
2022/11/27 11:10:24;;;;;;;584.97;226.40;;;;;;;;;;4993427;28;20224;-56
2022/11/27 11:13:02;;;;;;;517.80;201.57;;;;;;;;;;4961260;28;20798;-54
2022/11/27 11:15:28;;;;;;;375.40;147.17;;;;;;;;;;4975859;28;20245;-55
2022/11/27 11:17:54;;;;;;;458.63;180.33;;;;;;;;;;4987324;28;21646;-54
2022/11/27 11:20:21;;;;;;;331.47;143.47;;;;;;;;;;4983220;28;20696;-54
2022/11/27 11:22:47;;;;;;;495.50;196.20;;;;;;;;;;4985852;28;20278;-54
2022/11/27 11:25:17;;;;;;;583.03;219.63;;;;;;;;;;4980666;28;20220;-54
2022/11/27 11:27:44;;;;;;;410.10;174.37;;;;;;;;;;4977835;28;20242;-55
2022/11/27 11:30:20;;;;;;;578.60;234.23;;;;;;;;;;4981115;28;20191;-55
2022/11/27 11:32:48;;;;;;;536.40;219.40;;;;;;;;;;5002720;28;20231;-54
2022/11/27 11:35:31;;;;;;;577.63;191.20;;;;;;;;;;5013480;28;20226;-54
2022/11/27 11:37:58;;;;;;;516.70;179.53;;;;;;;;;;4990741;28;20224;-54
2022/11/27 11:40:34;;;;;;;486.93;166.13;;;;;;;;;;5000946;28;20775;-54
2022/11/27 11:43:05;;;;;;;415.20;174.23;;;;;;;;;;5005635;28;20297;-54
2022/11/27 11:45:32;;;;;;;512.73;182.57;;;;;;;;;;4994045;28;20605;-54
2022/11/27 11:48:21;;;;;;;588.47;208.17;;;;;;;;;;4998314;28;20192;-55
2022/11/27 11:50:52;;;;;;;581.23;209.73;;;;;;;;;;5012693;28;20259;-54
2022/11/27 11:53:24;;;;;;;565.67;213.37;;;;;;;;;;5004365;28;20227;-53
2022/11/27 11:56:08;;;;;;;613.73;235.17;;;;;;;;;;4983376;28;20275;-54
2022/11/27 11:58:49;;;;;;;733.00;286.77;;;;;;;;;;4984537;28;20248;-54
2022/11/27 12:01:35;;;;;;;507.63;200.10;;;;;;;;;;4983388;28;20635;-54
2022/11/27 12:04:07;;;;;;;545.87;205.93;;;;;;;;;;4992625;28;20811;-55
2022/11/27 12:06:38;;;;;;;409.43;172.83;;;;;;;;;;4994144;28;20230;-54
2022/11/27 12:09:07;;;;;;;445.47;175.17;;;;;;;;;;4996095;28;20192;-53
2022/11/27 12:11:39;;;;;;;375.97;159.20;;;;;;;;;;4981225;28;20225;-54
2022/11/27 12:14:25;;;;;;;433.47;181.03;;;;;;;;;;4981548;28;20244;-54
2022/11/27 12:16:56;;;;;;;406.20;167.57;;;;;;;;;;4982958;28;20222;-55
2022/11/27 12:19:35;;;;;;;349.63;148.77;;;;;;;;;;4980765;28;20227;-54
2022/11/27 12:22:10;;;;;;;367.80;154.53;;;;;;;;;;4997143;28;20212;-54
2022/11/27 12:24:44;;;;;;;466.07;192.83;;;;;;;;;;5004866;28;20649;-54
2022/11/27 12:27:20;;;;;;;454.53;195.60;;;;;;;;;;4999317;28;20207;-54
2022/11/27 12:29:59;;;;;;;505.90;203.43;;;;;;;;;;4987815;28;20208;-53
2022/11/27 12:32:43;;;;;;;410.90;179.00;;;;;;;;;;4985077;28;20496;-53
2022/11/27 12:35:28;;;;;;;409.30;168.13;;;;;;;;;;4988540;28;20212;-54
2022/11/27 12:37:57;;;;;;;364.03;162.23;;;;;;;;;;4995611;28;20256;-53
2022/11/27 12:40:44;;;;;;;467.30;187.93;;;;;;;;;;4983606;28;20216;-54
2022/11/27 12:43:19;;;;;;;428.97;175.90;;;;;;;;;;4985456;28;20736;-54
2022/11/27 12:46:15;;;;;;;352.70;152.93;;;;;;;;;;4994819;28;20266;-54
2022/11/27 12:48:43;;;;;;;400.90;172.30;;;;;;;;;;4976397;28;20344;-54
2022/11/27 12:51:12;;;;;;;380.57;169.20;;;;;;;;;;4989294;28;20177;-55
2022/11/27 12:53:40;;;;;;;332.47;147.77;;;;;;;;;;4980615;28;20582;-54
2022/11/27 12:56:10;;;;;;;406.60;177.13;;;;;;;;;;4985558;28;20407;-54
2022/11/27 12:58:40;;;;;;;479.17;202.47;;;;;;;;;;4982515;28;20247;-54
2022/11/27 13:01:09;;;;;;;405.23;169.07;;;;;;;;;;4993442;28;20705;-54
2022/11/27 13:03:54;;;;;;;416.33;174.03;;;;;;;;;;4994248;28;20295;-54
2022/11/27 13:06:23;;;;;;;471.77;198.83;;;;;;;;;;4985418;28;20196;-54
2022/11/27 13:08:53;;;;;;;553.93;223.50;;;;;;;;;;4993042;28;20185;-55
2022/11/27 13:11:23;;;;;;;382.67;163.90;;;;;;;;;;4979129;28;22715;-55
2022/11/27 13:13:51;;;;;;;368.83;159.77;;;;;;;;;;4987539;28;20221;-55
2022/11/27 13:16:25;;;;;;;629.17;251.40;;;;;;;;;;4976455;28;20219;-55
2022/11/27 13:18:55;;;;;;;608.30;239.37;;;;;;;;;;4976788;28;20732;-54
2022/11/27 13:21:24;;;;;;;486.20;200.23;;;;;;;;;;4985434;28;20275;-55
2022/11/27 13:23:50;;;;;;;639.13;254.97;;;;;;;;;;4986330;28;20219;-54
2022/11/27 13:26:25;;;;;;;624.40;235.27;;;;;;;;;;4997050;28;20220;-55
2022/11/27 13:28:59;;;;;;;671.63;250.20;;;;;;;;;;4996416;28;20211;-56
2022/11/27 13:31:27;;;;;;;497.53;201.03;;;;;;;;;;5005184;28;20275;-55
2022/11/27 13:33:58;;;;;;;530.97;200.83;;;;;;;;;;4999138;28;20374;-56
2022/11/27 13:36:25;;;;;;;525.10;210.47;;;;;;;;;;5001943;28;20180;-55
2022/11/27 13:38:57;;;;;;;641.70;259.07;;;;;;;;;;4982032;28;20217;-54
2022/11/27 13:41:24;;;;;;;608.10;239.03;;;;;;;;;;4981141;28;20219;-54
2022/11/27 13:43:50;;;;;;;773.63;300.93;;;;;;;;;;4971680;28;20554;-54
2022/11/27 13:46:24;;;;;;;623.77;252.93;;;;;;;;;;4972887;28;20708;-54
2022/11/27 13:49:04;;;;;;;557.13;217.93;;;;;;;;;;4981836;28;20446;-55
2022/11/27 13:51:30;;;;;;;621.17;245.00;;;;;;;;;;4974027;28;20548;-54
2022/11/27 13:54:13;;;;;;;664.53;253.93;;;;;;;;;;4981469;28;20212;-54
2022/11/27 13:56:39;;;;;;;624.30;252.87;;;;;;;;;;4975508;28;20213;-55
2022/11/27 13:59:22;;;;;;;653.83;261.33;;;;;;;;;;4978253;28;20216;-54
2022/11/27 14:01:59;;;;;;;554.97;221.70;;;;;;;;;;4995319;28;20716;-54